sensor_id;sensor_type;location;lat;lon;timestamp;temperature;humidity
24217;DHT22;12356;49.386;8.688;2022-09-02T00:02:06;20.90;47.10
24217;DHT22;12356;49.386;8.688;2022-09-02T00:04:38;20.90;47.40
24217;DHT22;12356;49.386;8.688;2022-09-02T00:07:08;20.80;47.50
24217;DHT22;12356;49.386;8.688;2022-09-02T00:09:39;20.80;48.00
24217;DHT22;12356;49.386;8.688;2022-09-02T00:12:10;20.80;47.40
24217;DHT22;12356;49.386;8.688;2022-09-02T00:14:42;20.80;47.40
24217;DHT22;12356;49.386;8.688;2022-09-02T00:17:12;20.80;47.40
24217;DHT22;12356;49.386;8.688;2022-09-02T00:19:43;20.70;47.70
24217;DHT22;12356;49.386;8.688;2022-09-02T00:22:14;20.70;46.90
24217;DHT22;12356;49.386;8.688;2022-09-02T00:24:44;20.70;47.50
24217;DHT22;12356;49.386;8.688;2022-09-02T00:27:15;20.60;47.70
24217;DHT22;12356;49.386;8.688;2022-09-02T00:29:46;20.60;48.00
24217;DHT22;12356;49.386;8.688;2022-09-02T00:32:18;20.60;47.80
24217;DHT22;12356;49.386;8.688;2022-09-02T00:34:49;20.60;47.70
24217;DHT22;12356;49.386;8.688;2022-09-02T00:37:19;20.50;47.50
24217;DHT22;12356;49.386;8.688;2022-09-02T00:39:51;20.50;47.80
24217;DHT22;12356;49.386;8.688;2022-09-02T00:42:23;20.50;47.40
24217;DHT22;12356;49.386;8.688;2022-09-02T00:44:54;20.50;47.80
24217;DHT22;12356;49.386;8.688;2022-09-02T00:47:25;20.50;47.40
24217;DHT22;12356;49.386;8.688;2022-09-02T00:49:56;20.50;47.70
24217;DHT22;12356;49.386;8.688;2022-09-02T00:52:33;20.50;48.00
24217;DHT22;12356;49.386;8.688;2022-09-02T00:55:12;20.50;47.30
24217;DHT22;12356;49.386;8.688;2022-09-02T00:57:50;20.50;47.60
24217;DHT22;12356;49.386;8.688;2022-09-02T01:00:28;20.50;47.80
24217;DHT22;12356;49.386;8.688;2022-09-02T01:03:06;20.40;47.50
24217;DHT22;12356;49.386;8.688;2022-09-02T01:05:40;20.40;47.40
24217;DHT22;12356;49.386;8.688;2022-09-02T01:08:17;20.40;47.80
24217;DHT22;12356;49.386;8.688;2022-09-02T01:10:49;20.30;47.80
24217;DHT22;12356;49.386;8.688;2022-09-02T01:13:23;20.40;47.80
24217;DHT22;12356;49.386;8.688;2022-09-02T01:18:50;20.40;47.80
24217;DHT22;12356;49.386;8.688;2022-09-02T01:21:22;20.30;48.30
24217;DHT22;12356;49.386;8.688;2022-09-02T01:23:53;20.30;47.70
24217;DHT22;12356;49.386;8.688;2022-09-02T01:26:24;20.20;48.50
24217;DHT22;12356;49.386;8.688;2022-09-02T01:28:54;20.20;48.00
24217;DHT22;12356;49.386;8.688;2022-09-02T01:31:25;20.20;48.40
24217;DHT22;12356;49.386;8.688;2022-09-02T01:33:56;20.10;48.40
24217;DHT22;12356;49.386;8.688;2022-09-02T01:36:27;20.10;48.40
24217;DHT22;12356;49.386;8.688;2022-09-02T01:38:58;20.10;48.40
24217;DHT22;12356;49.386;8.688;2022-09-02T01:41:28;20.10;48.40
24217;DHT22;12356;49.386;8.688;2022-09-02T01:43:59;20.10;48.40
24217;DHT22;12356;49.386;8.688;2022-09-02T01:46:31;20.10;48.40
24217;DHT22;12356;49.386;8.688;2022-09-02T01:49:03;20.10;48.40
24217;DHT22;12356;49.386;8.688;2022-09-02T01:51:34;20.10;49.10
24217;DHT22;12356;49.386;8.688;2022-09-02T01:54:05;20.10;48.60
24217;DHT22;12356;49.386;8.688;2022-09-02T01:56:37;20.00;48.60
24217;DHT22;12356;49.386;8.688;2022-09-02T01:59:07;20.00;48.50
24217;DHT22;12356;49.386;8.688;2022-09-02T02:01:40;20.00;48.30
24217;DHT22;12356;49.386;8.688;2022-09-02T02:04:12;20.00;48.30
24217;DHT22;12356;49.386;8.688;2022-09-02T02:06:44;20.00;48.30
24217;DHT22;12356;49.386;8.688;2022-09-02T02:09:15;20.00;48.30
24217;DHT22;12356;49.386;8.688;2022-09-02T02:11:47;20.00;47.50
24217;DHT22;12356;49.386;8.688;2022-09-02T02:14:18;20.10;48.20
24217;DHT22;12356;49.386;8.688;2022-09-02T02:16:49;20.00;48.30
24217;DHT22;12356;49.386;8.688;2022-09-02T02:19:20;20.10;48.40
24217;DHT22;12356;49.386;8.688;2022-09-02T02:21:50;20.00;47.50
24217;DHT22;12356;49.386;8.688;2022-09-02T02:24:21;20.00;48.30
24217;DHT22;12356;49.386;8.688;2022-09-02T02:26:52;20.00;48.30
24217;DHT22;12356;49.386;8.688;2022-09-02T02:29:22;20.00;47.50
24217;DHT22;12356;49.386;8.688;2022-09-02T02:31:53;20.00;48.30
24217;DHT22;12356;49.386;8.688;2022-09-02T02:34:24;19.90;47.60
24217;DHT22;12356;49.386;8.688;2022-09-02T02:36:54;19.90;48.10
24217;DHT22;12356;49.386;8.688;2022-09-02T02:39:25;19.90;47.70
24217;DHT22;12356;49.386;8.688;2022-09-02T02:41:56;19.80;48.00
24217;DHT22;12356;49.386;8.688;2022-09-02T02:44:27;19.80;48.00
24217;DHT22;12356;49.386;8.688;2022-09-02T02:46:58;19.80;48.00
24217;DHT22;12356;49.386;8.688;2022-09-02T02:49:29;19.80;48.10
24217;DHT22;12356;49.386;8.688;2022-09-02T02:52:00;19.90;47.30
24217;DHT22;12356;49.386;8.688;2022-09-02T02:54:31;19.90;48.10
24217;DHT22;12356;49.386;8.688;2022-09-02T02:57:02;19.80;47.10
24217;DHT22;12356;49.386;8.688;2022-09-02T02:59:33;19.80;47.50
24217;DHT22;12356;49.386;8.688;2022-09-02T03:02:06;19.80;46.80
24217;DHT22;12356;49.386;8.688;2022-09-02T03:04:37;19.80;47.50
24217;DHT22;12356;49.386;8.688;2022-09-02T03:07:09;19.80;47.60
24217;DHT22;12356;49.386;8.688;2022-09-02T03:09:39;19.80;47.30
24217;DHT22;12356;49.386;8.688;2022-09-02T03:12:10;19.80;47.40
24217;DHT22;12356;49.386;8.688;2022-09-02T03:14:41;19.80;47.10
24217;DHT22;12356;49.386;8.688;2022-09-02T03:17:13;19.80;47.00
24217;DHT22;12356;49.386;8.688;2022-09-02T03:19:44;19.80;47.70
24217;DHT22;12356;49.386;8.688;2022-09-02T03:22:15;19.80;47.10
24217;DHT22;12356;49.386;8.688;2022-09-02T03:24:46;19.80;46.70
24217;DHT22;12356;49.386;8.688;2022-09-02T03:27:17;19.80;47.20
24217;DHT22;12356;49.386;8.688;2022-09-02T03:29:47;19.80;47.40
24217;DHT22;12356;49.386;8.688;2022-09-02T03:32:18;19.70;47.00
24217;DHT22;12356;49.386;8.688;2022-09-02T03:34:48;19.80;47.40
24217;DHT22;12356;49.386;8.688;2022-09-02T03:37:19;19.80;46.60
24217;DHT22;12356;49.386;8.688;2022-09-02T03:39:50;19.70;47.00
24217;DHT22;12356;49.386;8.688;2022-09-02T03:42:21;19.70;46.90
24217;DHT22;12356;49.386;8.688;2022-09-02T03:44:52;19.70;46.90
24217;DHT22;12356;49.386;8.688;2022-09-02T03:47:23;19.70;47.20
24217;DHT22;12356;49.386;8.688;2022-09-02T03:49:54;19.70;47.20
24217;DHT22;12356;49.386;8.688;2022-09-02T03:52:25;19.70;46.30
24217;DHT22;12356;49.386;8.688;2022-09-02T03:54:56;19.70;45.70
24217;DHT22;12356;49.386;8.688;2022-09-02T03:57:26;19.60;45.90
24217;DHT22;12356;49.386;8.688;2022-09-02T03:59:57;19.60;46.40
24217;DHT22;12356;49.386;8.688;2022-09-02T04:02:28;19.60;46.30
24217;DHT22;12356;49.386;8.688;2022-09-02T04:04:58;19.60;45.80
24217;DHT22;12356;49.386;8.688;2022-09-02T04:07:29;19.60;46.20
24217;DHT22;12356;49.386;8.688;2022-09-02T04:10:00;19.50;45.80
24217;DHT22;12356;49.386;8.688;2022-09-02T04:12:31;19.50;46.10
24217;DHT22;12356;49.386;8.688;2022-09-02T04:15:07;19.50;46.20
24217;DHT22;12356;49.386;8.688;2022-09-02T04:17:40;19.50;46.50
24217;DHT22;12356;49.386;8.688;2022-09-02T04:20:12;19.40;46.80
24217;DHT22;12356;49.386;8.688;2022-09-02T04:22:43;19.40;46.80
24217;DHT22;12356;49.386;8.688;2022-09-02T04:25:14;19.40;47.30
24217;DHT22;12356;49.386;8.688;2022-09-02T04:27:44;19.30;47.50
24217;DHT22;12356;49.386;8.688;2022-09-02T04:30:15;19.30;47.50
24217;DHT22;12356;49.386;8.688;2022-09-02T04:32:46;19.30;47.60
24217;DHT22;12356;49.386;8.688;2022-09-02T04:35:17;19.20;47.40
24217;DHT22;12356;49.386;8.688;2022-09-02T04:37:48;19.20;47.40
24217;DHT22;12356;49.386;8.688;2022-09-02T04:40:19;19.30;47.50
24217;DHT22;12356;49.386;8.688;2022-09-02T04:42:49;19.30;47.10
24217;DHT22;12356;49.386;8.688;2022-09-02T04:45:21;19.30;48.30
24217;DHT22;12356;49.386;8.688;2022-09-02T04:47:52;19.20;47.40
24217;DHT22;12356;49.386;8.688;2022-09-02T04:50:22;19.20;47.30
24217;DHT22;12356;49.386;8.688;2022-09-02T04:52:53;19.10;47.40
24217;DHT22;12356;49.386;8.688;2022-09-02T04:55:24;19.10;48.10
24217;DHT22;12356;49.386;8.688;2022-09-02T04:57:55;19.10;47.40
24217;DHT22;12356;49.386;8.688;2022-09-02T05:00:26;19.10;47.60
24217;DHT22;12356;49.386;8.688;2022-09-02T05:02:57;19.10;47.30
24217;DHT22;12356;49.386;8.688;2022-09-02T05:05:27;19.20;47.40
24217;DHT22;12356;49.386;8.688;2022-09-02T05:07:58;19.10;47.30
24217;DHT22;12356;49.386;8.688;2022-09-02T05:10:29;19.20;46.60
24217;DHT22;12356;49.386;8.688;2022-09-02T05:13:00;19.10;47.30
24217;DHT22;12356;49.386;8.688;2022-09-02T05:15:30;19.10;47.30
24217;DHT22;12356;49.386;8.688;2022-09-02T05:18:01;19.20;47.50
24217;DHT22;12356;49.386;8.688;2022-09-02T05:20:32;19.20;47.00
24217;DHT22;12356;49.386;8.688;2022-09-02T05:23:03;19.10;46.90
24217;DHT22;12356;49.386;8.688;2022-09-02T05:25:36;19.10;47.30
24217;DHT22;12356;49.386;8.688;2022-09-02T05:28:07;19.10;47.30
24217;DHT22;12356;49.386;8.688;2022-09-02T05:30:41;19.10;46.60
24217;DHT22;12356;49.386;8.688;2022-09-02T05:33:12;19.10;46.70
24217;DHT22;12356;49.386;8.688;2022-09-02T05:35:43;19.10;46.80
24217;DHT22;12356;49.386;8.688;2022-09-02T05:38:13;19.10;46.60
24217;DHT22;12356;49.386;8.688;2022-09-02T05:40:44;19.10;46.60
24217;DHT22;12356;49.386;8.688;2022-09-02T05:43:14;19.10;46.10
24217;DHT22;12356;49.386;8.688;2022-09-02T05:45:45;19.10;46.50
24217;DHT22;12356;49.386;8.688;2022-09-02T05:48:18;19.10;46.30
24217;DHT22;12356;49.386;8.688;2022-09-02T05:51:07;19.10;46.00
24217;DHT22;12356;49.386;8.688;2022-09-02T05:53:37;19.20;46.30
24217;DHT22;12356;49.386;8.688;2022-09-02T05:56:08;19.10;46.40
24217;DHT22;12356;49.386;8.688;2022-09-02T05:58:39;19.10;45.50
24217;DHT22;12356;49.386;8.688;2022-09-02T06:01:11;19.10;46.30
24217;DHT22;12356;49.386;8.688;2022-09-02T06:03:42;19.10;46.30
24217;DHT22;12356;49.386;8.688;2022-09-02T06:06:13;19.10;46.60
24217;DHT22;12356;49.386;8.688;2022-09-02T06:08:44;19.10;46.50
24217;DHT22;12356;49.386;8.688;2022-09-02T06:11:14;19.10;46.60
24217;DHT22;12356;49.386;8.688;2022-09-02T06:13:47;19.10;47.30
24217;DHT22;12356;49.386;8.688;2022-09-02T06:16:20;19.10;47.30
24217;DHT22;12356;49.386;8.688;2022-09-02T06:18:51;19.10;46.60
24217;DHT22;12356;49.386;8.688;2022-09-02T06:21:22;19.10;47.30
24217;DHT22;12356;49.386;8.688;2022-09-02T06:23:52;19.10;47.40
24217;DHT22;12356;49.386;8.688;2022-09-02T06:26:23;19.10;47.30
24217;DHT22;12356;49.386;8.688;2022-09-02T06:28:54;19.10;47.40
24217;DHT22;12356;49.386;8.688;2022-09-02T06:31:24;19.10;47.00
24217;DHT22;12356;49.386;8.688;2022-09-02T06:33:56;19.10;47.30
24217;DHT22;12356;49.386;8.688;2022-09-02T06:36:28;19.10;47.20
24217;DHT22;12356;49.386;8.688;2022-09-02T06:39:00;19.10;47.30
24217;DHT22;12356;49.386;8.688;2022-09-02T06:41:32;19.20;46.60
24217;DHT22;12356;49.386;8.688;2022-09-02T06:44:04;19.30;47.00
24217;DHT22;12356;49.386;8.688;2022-09-02T06:46:40;19.30;47.50
24217;DHT22;12356;49.386;8.688;2022-09-02T06:49:13;19.30;47.50
24217;DHT22;12356;49.386;8.688;2022-09-02T06:51:47;19.40;47.50
24217;DHT22;12356;49.386;8.688;2022-09-02T06:54:19;19.40;46.80
24217;DHT22;12356;49.386;8.688;2022-09-02T06:56:51;19.40;46.80
24217;DHT22;12356;49.386;8.688;2022-09-02T06:59:22;19.50;47.70
24217;DHT22;12356;49.386;8.688;2022-09-02T07:01:52;19.60;46.60
24217;DHT22;12356;49.386;8.688;2022-09-02T07:04:23;19.60;47.30
24217;DHT22;12356;49.386;8.688;2022-09-02T07:07:12;19.60;47.20
24217;DHT22;12356;49.386;8.688;2022-09-02T07:09:43;19.70;46.80
24217;DHT22;12356;49.386;8.688;2022-09-02T07:12:14;19.80;47.00
24217;DHT22;12356;49.386;8.688;2022-09-02T07:14:46;19.80;47.10
24217;DHT22;12356;49.386;8.688;2022-09-02T07:17:16;19.90;46.70
24217;DHT22;12356;49.386;8.688;2022-09-02T07:19:51;19.90;46.20
24217;DHT22;12356;49.386;8.688;2022-09-02T07:22:21;20.00;46.50
24217;DHT22;12356;49.386;8.688;2022-09-02T07:24:52;20.00;46.30
24217;DHT22;12356;49.386;8.688;2022-09-02T07:27:23;20.10;46.80
24217;DHT22;12356;49.386;8.688;2022-09-02T07:29:53;20.20;46.40
24217;DHT22;12356;49.386;8.688;2022-09-02T07:32:25;20.20;45.40
24217;DHT22;12356;49.386;8.688;2022-09-02T07:34:56;20.30;46.00
24217;DHT22;12356;49.386;8.688;2022-09-02T07:37:27;20.30;45.50
24217;DHT22;12356;49.386;8.688;2022-09-02T07:39:58;20.30;46.00
24217;DHT22;12356;49.386;8.688;2022-09-02T07:42:28;20.30;45.60
24217;DHT22;12356;49.386;8.688;2022-09-02T07:44:59;20.40;45.10
24217;DHT22;12356;49.386;8.688;2022-09-02T07:47:30;20.40;44.90
24217;DHT22;12356;49.386;8.688;2022-09-02T07:50:01;20.50;45.40
24217;DHT22;12356;49.386;8.688;2022-09-02T07:52:31;20.50;45.50
24217;DHT22;12356;49.386;8.688;2022-09-02T07:55:03;20.60;44.80
24217;DHT22;12356;49.386;8.688;2022-09-02T07:57:34;20.60;45.00
24217;DHT22;12356;49.386;8.688;2022-09-02T08:00:05;20.70;44.50
24217;DHT22;12356;49.386;8.688;2022-09-02T08:02:36;20.70;44.80
24217;DHT22;12356;49.386;8.688;2022-09-02T08:05:07;20.80;44.40
24217;DHT22;12356;49.386;8.688;2022-09-02T08:07:38;20.80;44.30
24217;DHT22;12356;49.386;8.688;2022-09-02T08:10:09;20.90;44.20
24217;DHT22;12356;49.386;8.688;2022-09-02T08:12:43;20.90;43.50
24217;DHT22;12356;49.386;8.688;2022-09-02T08:15:15;20.90;43.70
24217;DHT22;12356;49.386;8.688;2022-09-02T08:17:47;20.90;44.60
24217;DHT22;12356;49.386;8.688;2022-09-02T08:20:17;21.00;44.10
24217;DHT22;12356;49.386;8.688;2022-09-02T08:22:48;21.00;43.80
24217;DHT22;12356;49.386;8.688;2022-09-02T08:25:19;21.10;43.40
24217;DHT22;12356;49.386;8.688;2022-09-02T08:27:49;21.20;44.00
24217;DHT22;12356;49.386;8.688;2022-09-02T08:30:20;21.20;43.20
24217;DHT22;12356;49.386;8.688;2022-09-02T08:32:51;21.30;42.80
24217;DHT22;12356;49.386;8.688;2022-09-02T08:35:21;21.30;42.70
24217;DHT22;12356;49.386;8.688;2022-09-02T08:37:52;21.30;41.70
24217;DHT22;12356;49.386;8.688;2022-09-02T08:40:27;21.40;41.60
24217;DHT22;12356;49.386;8.688;2022-09-02T08:43:00;21.40;41.80
24217;DHT22;12356;49.386;8.688;2022-09-02T08:45:33;21.50;41.50
24217;DHT22;12356;49.386;8.688;2022-09-02T08:51:04;21.60;41.30
24217;DHT22;12356;49.386;8.688;2022-09-02T08:53:53;21.60;41.60
24217;DHT22;12356;49.386;8.688;2022-09-02T08:56:27;21.60;40.80
24217;DHT22;12356;49.386;8.688;2022-09-02T08:58:58;21.70;41.20
24217;DHT22;12356;49.386;8.688;2022-09-02T09:15:31;21.80;38.80
24217;DHT22;12356;49.386;8.688;2022-09-02T09:18:07;21.80;39.60
24217;DHT22;12356;49.386;8.688;2022-09-02T09:20:40;21.90;38.60
24217;DHT22;12356;49.386;8.688;2022-09-02T09:23:28;21.90;39.30
24217;DHT22;12356;49.386;8.688;2022-09-02T09:26:22;21.90;38.10
24217;DHT22;12356;49.386;8.688;2022-09-02T09:28:55;21.90;39.70
24217;DHT22;12356;49.386;8.688;2022-09-02T09:31:30;21.90;38.20
24217;DHT22;12356;49.386;8.688;2022-09-02T09:34:07;21.90;38.10
24217;DHT22;12356;49.386;8.688;2022-09-02T09:39:25;22.00;39.00
24217;DHT22;12356;49.386;8.688;2022-09-02T09:41:57;22.00;38.90
24217;DHT22;12356;49.386;8.688;2022-09-02T09:44:39;22.10;37.60
24217;DHT22;12356;49.386;8.688;2022-09-02T09:47:17;22.10;37.10
24217;DHT22;12356;49.386;8.688;2022-09-02T09:52:30;22.20;35.30
24217;DHT22;12356;49.386;8.688;2022-09-02T09:55:20;22.30;35.50
24217;DHT22;12356;49.386;8.688;2022-09-02T09:57:51;22.30;35.40
24217;DHT22;12356;49.386;8.688;2022-09-02T10:00:28;22.40;35.50
24217;DHT22;12356;49.386;8.688;2022-09-02T10:03:04;22.50;36.40
24217;DHT22;12356;49.386;8.688;2022-09-02T10:05:38;22.60;36.00
24217;DHT22;12356;49.386;8.688;2022-09-02T10:11:05;22.70;35.30
24217;DHT22;12356;49.386;8.688;2022-09-02T10:13:48;22.80;33.70
24217;DHT22;12356;49.386;8.688;2022-09-02T10:16:47;22.80;32.60
24217;DHT22;12356;49.386;8.688;2022-09-02T10:19:49;22.90;33.10
24217;DHT22;12356;49.386;8.688;2022-09-02T10:27:57;23.20;31.00
24217;DHT22;12356;49.386;8.688;2022-09-02T10:33:26;23.10;30.30
24217;DHT22;12356;49.386;8.688;2022-09-02T10:36:13;23.10;30.00
24217;DHT22;12356;49.386;8.688;2022-09-02T10:38:47;23.10;29.40
24217;DHT22;12356;49.386;8.688;2022-09-02T10:41:40;23.20;28.60
24217;DHT22;12356;49.386;8.688;2022-09-02T10:47:00;23.30;27.60
24217;DHT22;12356;49.386;8.688;2022-09-02T10:55:10;23.40;29.70
24217;DHT22;12356;49.386;8.688;2022-09-02T10:58:06;23.40;28.80
24217;DHT22;12356;49.386;8.688;2022-09-02T11:00:40;23.40;27.70
24217;DHT22;12356;49.386;8.688;2022-09-02T11:03:13;23.50;28.20
24217;DHT22;12356;49.386;8.688;2022-09-02T11:08:35;23.60;27.90
24217;DHT22;12356;49.386;8.688;2022-09-02T11:11:20;23.70;27.20
24217;DHT22;12356;49.386;8.688;2022-09-02T11:16:33;23.70;27.70
24217;DHT22;12356;49.386;8.688;2022-09-02T11:19:25;23.80;28.30
24217;DHT22;12356;49.386;8.688;2022-09-02T11:27:51;23.90;27.80
24217;DHT22;12356;49.386;8.688;2022-09-02T11:30:46;23.90;26.70
24217;DHT22;12356;49.386;8.688;2022-09-02T11:33:47;23.90;27.50
24217;DHT22;12356;49.386;8.688;2022-09-02T11:36:20;23.90;27.00
24217;DHT22;12356;49.386;8.688;2022-09-02T11:39:04;23.80;26.20
24217;DHT22;12356;49.386;8.688;2022-09-02T11:48:07;23.90;26.80
24217;DHT22;12356;49.386;8.688;2022-09-02T11:51:08;24.00;26.00
24217;DHT22;12356;49.386;8.688;2022-09-02T11:53:46;24.00;26.30
24217;DHT22;12356;49.386;8.688;2022-09-02T11:56:38;24.10;26.30
24217;DHT22;12356;49.386;8.688;2022-09-02T11:59:22;24.10;26.50
24217;DHT22;12356;49.386;8.688;2022-09-02T12:08:11;24.30;26.70
24217;DHT22;12356;49.386;8.688;2022-09-02T12:18:44;24.30;25.80
24217;DHT22;12356;49.386;8.688;2022-09-02T12:21:15;24.30;26.40
24217;DHT22;12356;49.386;8.688;2022-09-02T12:31:54;24.50;25.70
24217;DHT22;12356;49.386;8.688;2022-09-02T12:36:59;24.50;24.70
24217;DHT22;12356;49.386;8.688;2022-09-02T12:45:10;24.60;24.90
24217;DHT22;12356;49.386;8.688;2022-09-02T12:48:12;24.50;24.70
24217;DHT22;12356;49.386;8.688;2022-09-02T12:50:54;24.50;25.10
24217;DHT22;12356;49.386;8.688;2022-09-02T12:53:42;24.50;25.00
24217;DHT22;12356;49.386;8.688;2022-09-02T12:56:21;24.50;24.90
24217;DHT22;12356;49.386;8.688;2022-09-02T12:58:54;24.50;24.80
24217;DHT22;12356;49.386;8.688;2022-09-02T13:19:12;24.60;24.90
24217;DHT22;12356;49.386;8.688;2022-09-02T13:32:42;24.60;25.20
24217;DHT22;12356;49.386;8.688;2022-09-02T13:35:22;24.60;24.90
24217;DHT22;12356;49.386;8.688;2022-09-02T13:37:56;24.60;24.30
24217;DHT22;12356;49.386;8.688;2022-09-02T13:40:34;24.60;23.80
24217;DHT22;12356;49.386;8.688;2022-09-02T13:45:43;24.70;23.80
24217;DHT22;12356;49.386;8.688;2022-09-02T13:48:17;24.70;23.90
24217;DHT22;12356;49.386;8.688;2022-09-02T13:50:51;24.80;24.00
24217;DHT22;12356;49.386;8.688;2022-09-02T13:56:00;24.90;24.00
24217;DHT22;12356;49.386;8.688;2022-09-02T13:58:39;24.90;24.00
24217;DHT22;12356;49.386;8.688;2022-09-02T14:03:56;24.90;24.10
24217;DHT22;12356;49.386;8.688;2022-09-02T14:06:30;24.90;23.20
24217;DHT22;12356;49.386;8.688;2022-09-02T14:09:06;24.90;23.00
24217;DHT22;12356;49.386;8.688;2022-09-02T14:11:40;24.90;23.40
24217;DHT22;12356;49.386;8.688;2022-09-02T14:14:14;25.00;24.10
24217;DHT22;12356;49.386;8.688;2022-09-02T14:16:46;25.00;24.70
24217;DHT22;12356;49.386;8.688;2022-09-02T14:21:49;25.00;23.40
24217;DHT22;12356;49.386;8.688;2022-09-02T14:24:28;25.00;24.10
24217;DHT22;12356;49.386;8.688;2022-09-02T14:26:59;25.00;24.10
24217;DHT22;12356;49.386;8.688;2022-09-02T14:29:30;25.00;24.10
24217;DHT22;12356;49.386;8.688;2022-09-02T14:32:11;25.10;23.10
24217;DHT22;12356;49.386;8.688;2022-09-02T14:34:44;25.10;23.20
24217;DHT22;12356;49.386;8.688;2022-09-02T14:39:53;25.00;24.40
24217;DHT22;12356;49.386;8.688;2022-09-02T14:42:31;25.00;24.10
24217;DHT22;12356;49.386;8.688;2022-09-02T14:45:02;25.00;23.20
24217;DHT22;12356;49.386;8.688;2022-09-02T14:47:35;25.10;23.90
24217;DHT22;12356;49.386;8.688;2022-09-02T14:50:11;25.00;23.20
24217;DHT22;12356;49.386;8.688;2022-09-02T14:52:49;25.00;22.90
24217;DHT22;12356;49.386;8.688;2022-09-02T14:55:44;25.10;23.30
24217;DHT22;12356;49.386;8.688;2022-09-02T14:58:17;25.10;24.10
24217;DHT22;12356;49.386;8.688;2022-09-02T15:00:50;25.20;24.20
24217;DHT22;12356;49.386;8.688;2022-09-02T15:03:23;25.20;23.60
24217;DHT22;12356;49.386;8.688;2022-09-02T15:05:54;25.20;23.00
24217;DHT22;12356;49.386;8.688;2022-09-02T15:08:25;25.20;24.20
24217;DHT22;12356;49.386;8.688;2022-09-02T15:10:59;25.20;23.40
24217;DHT22;12356;49.386;8.688;2022-09-02T15:13:32;25.20;23.80
24217;DHT22;12356;49.386;8.688;2022-09-02T15:16:03;25.20;24.20
24217;DHT22;12356;49.386;8.688;2022-09-02T15:18:34;25.20;23.20
24217;DHT22;12356;49.386;8.688;2022-09-02T15:21:04;25.20;23.50
24217;DHT22;12356;49.386;8.688;2022-09-02T15:23:35;25.20;24.20
24217;DHT22;12356;49.386;8.688;2022-09-02T15:26:08;25.20;23.60
24217;DHT22;12356;49.386;8.688;2022-09-02T15:28:39;25.20;22.90
24217;DHT22;12356;49.386;8.688;2022-09-02T15:31:10;25.10;23.30
24217;DHT22;12356;49.386;8.688;2022-09-02T15:33:41;25.10;23.40
24217;DHT22;12356;49.386;8.688;2022-09-02T15:36:13;25.10;23.30
24217;DHT22;12356;49.386;8.688;2022-09-02T15:38:43;25.10;23.80
24217;DHT22;12356;49.386;8.688;2022-09-02T15:41:19;25.10;24.30
24217;DHT22;12356;49.386;8.688;2022-09-02T15:43:50;25.00;23.20
24217;DHT22;12356;49.386;8.688;2022-09-02T15:46:26;25.00;23.10
24217;DHT22;12356;49.386;8.688;2022-09-02T15:49:00;25.00;24.10
24217;DHT22;12356;49.386;8.688;2022-09-02T15:51:32;25.00;23.50
24217;DHT22;12356;49.386;8.688;2022-09-02T15:54:08;24.90;23.00
24217;DHT22;12356;49.386;8.688;2022-09-02T15:56:42;24.90;23.40
24217;DHT22;12356;49.386;8.688;2022-09-02T15:59:18;24.90;24.00
24217;DHT22;12356;49.386;8.688;2022-09-02T16:01:53;24.80;23.90
24217;DHT22;12356;49.386;8.688;2022-09-02T16:04:27;24.80;23.80
24217;DHT22;12356;49.386;8.688;2022-09-02T16:06:58;24.80;23.90
24217;DHT22;12356;49.386;8.688;2022-09-02T16:09:30;24.80;24.00
24217;DHT22;12356;49.386;8.688;2022-09-02T16:12:01;24.80;23.90
24217;DHT22;12356;49.386;8.688;2022-09-02T16:14:32;24.70;23.90
24217;DHT22;12356;49.386;8.688;2022-09-02T16:17:03;24.70;24.80
24217;DHT22;12356;49.386;8.688;2022-09-02T16:19:34;24.70;24.40
24217;DHT22;12356;49.386;8.688;2022-09-02T16:22:04;24.70;25.20
24217;DHT22;12356;49.386;8.688;2022-09-02T16:24:35;24.70;25.00
24217;DHT22;12356;49.386;8.688;2022-09-02T16:27:06;24.60;25.10
24217;DHT22;12356;49.386;8.688;2022-09-02T16:29:56;24.60;24.80
24217;DHT22;12356;49.386;8.688;2022-09-02T16:32:27;24.60;23.80
24217;DHT22;12356;49.386;8.688;2022-09-02T16:34:57;24.60;24.20
24217;DHT22;12356;49.386;8.688;2022-09-02T16:37:28;24.50;24.80
24217;DHT22;12356;49.386;8.688;2022-09-02T16:39:59;24.50;24.60
24217;DHT22;12356;49.386;8.688;2022-09-02T16:42:30;24.50;25.10
24217;DHT22;12356;49.386;8.688;2022-09-02T16:45:01;24.50;25.40
24217;DHT22;12356;49.386;8.688;2022-09-02T16:47:31;24.40;25.40
24217;DHT22;12356;49.386;8.688;2022-09-02T16:50:02;24.40;24.70
24217;DHT22;12356;49.386;8.688;2022-09-02T16:52:33;24.30;25.60
24217;DHT22;12356;49.386;8.688;2022-09-02T16:55:04;24.30;24.80
24217;DHT22;12356;49.386;8.688;2022-09-02T16:57:35;24.30;26.10
24217;DHT22;12356;49.386;8.688;2022-09-02T17:00:06;24.20;26.40
24217;DHT22;12356;49.386;8.688;2022-09-02T17:02:37;24.20;25.50
24217;DHT22;12356;49.386;8.688;2022-09-02T17:05:08;24.10;25.40
24217;DHT22;12356;49.386;8.688;2022-09-02T17:07:40;24.10;26.40
24217;DHT22;12356;49.386;8.688;2022-09-02T17:10:10;24.10;26.30
24217;DHT22;12356;49.386;8.688;2022-09-02T17:12:41;24.00;26.70
24217;DHT22;12356;49.386;8.688;2022-09-02T17:15:12;24.00;26.70
24217;DHT22;12356;49.386;8.688;2022-09-02T17:17:42;23.90;27.40
24217;DHT22;12356;49.386;8.688;2022-09-02T17:20:13;23.90;26.70
24217;DHT22;12356;49.386;8.688;2022-09-02T17:22:44;23.80;26.80
24217;DHT22;12356;49.386;8.688;2022-09-02T17:25:15;23.80;26.60
24217;DHT22;12356;49.386;8.688;2022-09-02T17:27:45;23.80;26.00
24217;DHT22;12356;49.386;8.688;2022-09-02T17:30:16;23.70;26.10
24217;DHT22;12356;49.386;8.688;2022-09-02T17:32:47;23.70;26.90
24217;DHT22;12356;49.386;8.688;2022-09-02T17:35:17;23.70;27.80
24217;DHT22;12356;49.386;8.688;2022-09-02T17:37:48;23.70;28.00
24217;DHT22;12356;49.386;8.688;2022-09-02T17:40:19;23.60;27.80
24217;DHT22;12356;49.386;8.688;2022-09-02T17:43:28;23.60;26.50
24217;DHT22;12356;49.386;8.688;2022-09-02T17:46:08;23.60;26.80
24217;DHT22;12356;49.386;8.688;2022-09-02T17:48:39;23.50;27.00
24217;DHT22;12356;49.386;8.688;2022-09-02T17:51:11;23.50;27.40
24217;DHT22;12356;49.386;8.688;2022-09-02T17:53:42;23.50;29.20
24217;DHT22;12356;49.386;8.688;2022-09-02T18:05:02;23.30;27.10
24217;DHT22;12356;49.386;8.688;2022-09-02T18:10:52;23.20;29.10
24217;DHT22;12356;49.386;8.688;2022-09-02T18:16:31;23.10;30.00
24217;DHT22;12356;49.386;8.688;2022-09-02T18:19:25;23.10;29.70
24217;DHT22;12356;49.386;8.688;2022-09-02T18:28:24;22.90;28.60
24217;DHT22;12356;49.386;8.688;2022-09-02T18:31:06;22.90;28.80
24217;DHT22;12356;49.386;8.688;2022-09-02T18:34:09;22.90;28.50
24217;DHT22;12356;49.386;8.688;2022-09-02T18:37:21;22.90;28.90
24217;DHT22;12356;49.386;8.688;2022-09-02T18:40:19;22.80;29.40
24217;DHT22;12356;49.386;8.688;2022-09-02T18:43:06;22.80;29.40
24217;DHT22;12356;49.386;8.688;2022-09-02T18:45:50;22.80;28.30
24217;DHT22;12356;49.386;8.688;2022-09-02T18:48:32;22.80;28.20